createdAt,value
2018-09-29T00:01:05.422Z,94.70
2018-09-29T00:03:33.670Z,94.90
2018-09-29T00:06:01.929Z,94.70
2018-09-29T00:08:30.221Z,94.70
2018-09-29T00:10:58.488Z,94.80
2018-09-29T00:13:26.745Z,94.80
2018-09-29T00:15:55.029Z,94.70
2018-09-29T00:18:23.276Z,94.60
2018-09-29T00:20:51.520Z,94.50
2018-09-29T00:23:19.773Z,94.30
2018-09-29T00:25:48.117Z,94.70
2018-09-29T00:28:16.380Z,94.80
2018-09-29T00:30:44.652Z,95.10
2018-09-29T00:33:12.898Z,95.20
2018-09-29T00:35:41.140Z,95.40
2018-09-29T00:38:09.424Z,95.40
2018-09-29T00:40:37.680Z,95.20
2018-09-29T00:43:06.165Z,94.90
2018-09-29T00:45:34.416Z,95.00
2018-09-29T00:48:02.681Z,95.10
2018-09-29T00:50:30.933Z,95.10
2018-09-29T00:52:59.177Z,95.30
2018-09-29T00:55:27.428Z,95.50
2018-09-29T00:57:55.668Z,95.50
2018-09-29T01:00:23.929Z,95.80
2018-09-29T01:02:52.220Z,96.00
2018-09-29T01:05:20.587Z,95.90
2018-09-29T01:07:48.833Z,96.20
2018-09-29T01:10:17.086Z,95.70
2018-09-29T01:12:45.329Z,95.80
2018-09-29T01:15:13.598Z,95.80
2018-09-29T01:17:41.840Z,95.80
2018-09-29T01:20:10.096Z,95.70
2018-09-29T01:22:38.367Z,95.70
2018-09-29T01:25:06.644Z,95.80
2018-09-29T01:27:34.917Z,95.90
2018-09-29T01:30:03.177Z,96.10
2018-09-29T01:32:31.444Z,96.20
2018-09-29T01:34:59.690Z,96.30
2018-09-29T01:37:27.951Z,96.20
2018-09-29T01:39:56.203Z,96.10
2018-09-29T01:42:24.456Z,96.00
2018-09-29T01:44:52.733Z,96.10
2018-09-29T01:47:20.988Z,96.20
2018-09-29T01:49:49.271Z,96.40
2018-09-29T01:52:17.521Z,96.50
2018-09-29T01:54:45.793Z,96.60
2018-09-29T01:57:14.061Z,96.60
2018-09-29T01:59:42.328Z,96.60
2018-09-29T02:02:10.593Z,96.50
2018-09-29T02:04:38.872Z,96.50
2018-09-29T02:07:07.142Z,96.60
2018-09-29T02:09:35.408Z,96.80
2018-09-29T02:12:03.659Z,96.90
2018-09-29T02:14:31.965Z,96.80
2018-09-29T02:17:00.222Z,96.80
2018-09-29T02:19:28.480Z,96.90
2018-09-29T02:21:56.737Z,96.70
2018-09-29T02:24:24.999Z,96.70
2018-09-29T02:26:53.276Z,96.60
2018-09-29T02:29:21.520Z,96.60
2018-09-29T02:31:49.762Z,96.90
2018-09-29T02:34:18.005Z,96.70
2018-09-29T02:36:46.280Z,96.70
2018-09-29T02:39:14.552Z,97.00
2018-09-29T02:41:42.801Z,97.20
2018-09-29T02:44:11.063Z,97.30
2018-09-29T02:46:39.328Z,97.30
2018-09-29T02:49:07.596Z,97.30
2018-09-29T02:51:35.852Z,97.40
2018-09-29T02:54:04.292Z,97.50
2018-09-29T02:56:32.564Z,97.60
2018-09-29T02:59:00.820Z,97.60
2018-09-29T03:01:29.078Z,97.50
2018-09-29T03:03:57.361Z,97.50
2018-09-29T03:06:25.612Z,97.40
2018-09-29T03:08:54.029Z,97.50
2018-09-29T03:11:22.306Z,97.40
2018-09-29T03:13:50.620Z,97.50
2018-09-29T03:16:18.878Z,97.50
2018-09-29T03:18:47.138Z,97.50
2018-09-29T03:21:15.405Z,97.40
2018-09-29T03:23:43.676Z,97.30
2018-09-29T03:26:11.938Z,97.30
2018-09-29T03:28:40.257Z,97.30
2018-09-29T03:31:08.829Z,97.20
2018-09-29T03:33:37.087Z,97.30
2018-09-29T03:36:05.367Z,97.20
2018-09-29T03:38:33.616Z,97.30
2018-09-29T03:41:01.887Z,97.20
2018-09-29T03:43:30.161Z,97.20
2018-09-29T03:45:58.441Z,97.20
2018-09-29T03:48:26.744Z,97.30
2018-09-29T03:50:54.992Z,97.50
2018-09-29T03:53:23.503Z,97.60
2018-09-29T03:55:51.744Z,97.70
2018-09-29T03:58:19.997Z,97.80
2018-09-29T04:00:48.243Z,97.80
2018-09-29T04:03:17.765Z,98.00
2018-09-29T04:05:46.061Z,98.00
2018-09-29T04:08:14.326Z,98.10
2018-09-29T04:10:42.584Z,98.10
2018-09-29T04:13:10.848Z,98.10
2018-09-29T04:15:39.112Z,98.10
2018-09-29T04:18:07.373Z,97.90
2018-09-29T04:20:35.660Z,97.80
2018-09-29T04:23:10.684Z,97.80
2018-09-29T04:25:38.940Z,97.80
2018-09-29T04:28:07.188Z,97.80
2018-09-29T04:30:35.454Z,97.70
2018-09-29T04:33:03.715Z,97.60
2018-09-29T04:35:31.969Z,97.60
2018-09-29T04:38:00.216Z,97.40
2018-09-29T04:40:28.463Z,97.20
2018-09-29T04:42:56.720Z,97.10
2018-09-29T04:45:24.979Z,97.00
2018-09-29T04:47:53.257Z,97.00
2018-09-29T04:50:21.521Z,96.80
2018-09-29T04:52:49.844Z,97.00
2018-09-29T04:55:18.090Z,96.80
2018-09-29T04:57:46.390Z,96.70
2018-09-29T05:00:14.640Z,96.70
2018-09-29T05:02:42.896Z,96.60
2018-09-29T05:05:11.145Z,96.70
2018-09-29T05:07:39.409Z,96.80
2018-09-29T05:10:07.680Z,96.70
2018-09-29T05:12:35.953Z,96.80
2018-09-29T05:15:04.285Z,96.60
2018-09-29T05:17:32.534Z,96.80
2018-09-29T05:20:00.788Z,96.80
2018-09-29T05:22:29.061Z,97.00
2018-09-29T05:24:57.358Z,97.10
2018-09-29T05:27:25.604Z,97.10
2018-09-29T05:29:53.855Z,97.20
2018-09-29T05:32:22.113Z,97.30
2018-09-29T05:34:50.391Z,97.20
2018-09-29T05:37:18.648Z,97.20
2018-09-29T05:39:46.909Z,97.10
2018-09-29T05:42:15.249Z,97.10
2018-09-29T05:44:43.516Z,97.10
2018-09-29T05:47:11.792Z,97.00
2018-09-29T05:49:40.081Z,97.10
2018-09-29T05:52:08.380Z,97.10
2018-09-29T05:54:36.677Z,97.10
2018-09-29T05:57:04.920Z,97.10
2018-09-29T05:59:33.204Z,97.20
2018-09-29T06:02:01.469Z,96.90
2018-09-29T06:04:30.053Z,97.50
2018-09-29T06:06:58.371Z,97.40
2018-09-29T06:09:26.627Z,97.50
2018-09-29T06:11:54.932Z,97.60
2018-09-29T06:14:23.199Z,97.60
2018-09-29T06:16:51.458Z,97.40
2018-09-29T06:19:19.726Z,97.40
2018-09-29T06:21:47.985Z,97.40
2018-09-29T06:24:16.240Z,97.40
2018-09-29T06:26:44.508Z,97.40
2018-09-29T06:29:12.780Z,97.50
2018-09-29T06:31:41.052Z,97.50
2018-09-29T06:34:09.334Z,97.40
2018-09-29T06:36:37.645Z,97.50
2018-09-29T06:39:08.021Z,97.40
2018-09-29T06:41:36.257Z,97.20
2018-09-29T06:44:04.684Z,97.10
2018-09-29T06:46:32.948Z,97.00
2018-09-29T06:49:01.215Z,96.70
2018-09-29T06:51:29.480Z,96.70
2018-09-29T06:53:57.740Z,96.70
2018-09-29T06:56:25.993Z,96.70
2018-09-29T06:58:54.285Z,96.70
2018-09-29T07:01:22.537Z,96.30
2018-09-29T07:03:50.809Z,96.10
2018-09-29T07:06:19.088Z,95.90
2018-09-29T07:08:47.349Z,95.60
2018-09-29T07:11:15.617Z,95.10
2018-09-29T07:13:43.880Z,94.60
2018-09-29T07:16:12.141Z,93.80
2018-09-29T07:18:40.418Z,93.00
2018-09-29T07:21:08.688Z,92.30
2018-09-29T07:23:36.957Z,91.90
2018-09-29T07:26:05.261Z,91.80
2018-09-29T07:28:33.522Z,91.40
2018-09-29T07:31:01.792Z,90.80
2018-09-29T07:33:30.078Z,90.50
2018-09-29T07:35:58.361Z,89.90
2018-09-29T07:38:26.618Z,89.10
2018-09-29T07:40:54.876Z,89.10
2018-09-29T07:43:23.163Z,88.60
2018-09-29T07:45:51.449Z,89.30
2018-09-29T07:48:19.721Z,89.00
2018-09-29T07:50:47.998Z,86.50
2018-09-29T07:53:16.280Z,86.70
2018-09-29T07:55:44.541Z,85.50
2018-09-29T07:58:12.815Z,81.40
2018-09-29T08:00:41.091Z,78.80
2018-09-29T08:03:09.368Z,75.50
2018-09-29T08:05:37.644Z,70.30
2018-09-29T08:08:05.904Z,67.10
2018-09-29T08:10:34.180Z,65.60
2018-09-29T08:13:02.598Z,65.40
2018-09-29T08:15:30.868Z,61.50
2018-09-29T08:17:59.123Z,59.70
2018-09-29T08:20:27.388Z,57.40
2018-09-29T08:22:55.640Z,58.30
2018-09-29T08:25:23.925Z,56.80
2018-09-29T08:27:52.180Z,56.70
2018-09-29T08:30:20.461Z,56.10
2018-09-29T08:32:48.712Z,58.80
2018-09-29T08:35:16.961Z,58.50
2018-09-29T08:37:45.248Z,59.70
2018-09-29T08:40:13.513Z,61.70
2018-09-29T08:42:41.865Z,62.40
2018-09-29T08:45:10.151Z,62.90
2018-09-29T08:47:38.420Z,62.30
2018-09-29T08:50:06.842Z,63.20
2018-09-29T08:52:35.095Z,64.50
2018-09-29T08:55:03.365Z,65.60
2018-09-29T08:57:31.628Z,67.60
2018-09-29T08:59:59.882Z,69.10
2018-09-29T09:02:28.163Z,69.50
2018-09-29T09:04:56.432Z,69.50
2018-09-29T09:07:24.703Z,71.00
2018-09-29T09:09:52.968Z,72.50
2018-09-29T09:12:21.234Z,71.60
2018-09-29T09:14:49.517Z,70.60
2018-09-29T09:17:17.770Z,71.00
2018-09-29T09:19:46.034Z,71.10
2018-09-29T09:22:14.312Z,70.60
2018-09-29T09:24:42.573Z,70.90
2018-09-29T09:27:10.832Z,71.50
2018-09-29T09:29:39.118Z,70.60
2018-09-29T09:32:07.405Z,70.10
2018-09-29T09:34:35.661Z,66.50
2018-09-29T09:37:03.929Z,65.80
2018-09-29T09:39:32.180Z,63.50
2018-09-29T09:42:00.548Z,57.60
2018-09-29T09:44:28.809Z,54.70
2018-09-29T09:46:57.165Z,52.00
2018-09-29T09:49:25.438Z,51.30
2018-09-29T09:51:53.704Z,52.10
2018-09-29T09:54:21.983Z,50.90
2018-09-29T09:56:50.244Z,49.90
2018-09-29T09:59:18.517Z,49.80
2018-09-29T10:01:52.292Z,48.70
2018-09-29T10:04:20.532Z,49.20
2018-09-29T10:06:48.801Z,47.50
2018-09-29T10:09:17.058Z,44.70
2018-09-29T10:11:45.345Z,44.80
2018-09-29T10:14:13.602Z,44.00
2018-09-29T10:16:41.856Z,44.40
2018-09-29T10:19:10.114Z,47.10
2018-09-29T10:21:38.385Z,47.40
2018-09-29T10:24:06.832Z,45.80
2018-09-29T10:26:35.113Z,46.70
2018-09-29T10:29:03.390Z,45.20
2018-09-29T10:31:31.680Z,47.30
2018-09-29T10:33:59.955Z,47.60
2018-09-29T10:36:28.294Z,47.70
2018-09-29T10:38:56.646Z,49.10
2018-09-29T10:41:24.922Z,48.40
2018-09-29T10:43:53.173Z,49.00
2018-09-29T10:46:21.448Z,48.70
2018-09-29T10:48:49.733Z,48.50
2018-09-29T10:51:17.998Z,49.40
2018-09-29T10:53:46.272Z,49.60
2018-09-29T10:56:14.553Z,49.20
2018-09-29T10:58:42.815Z,49.00
2018-09-29T11:01:11.080Z,47.70
2018-09-29T11:03:39.352Z,48.60
2018-09-29T11:06:07.603Z,48.00
2018-09-29T11:08:36.058Z,48.40
2018-09-29T11:11:04.309Z,48.50
2018-09-29T11:13:32.568Z,50.00
2018-09-29T11:16:00.832Z,51.60
2018-09-29T11:18:29.088Z,53.00
2018-09-29T11:20:57.387Z,52.90
2018-09-29T11:23:25.625Z,52.00
2018-09-29T11:25:53.894Z,51.70
2018-09-29T11:28:22.810Z,52.40
2018-09-29T11:30:51.068Z,52.80
2018-09-29T11:33:19.581Z,53.80
2018-09-29T11:35:47.969Z,54.40
2018-09-29T11:38:16.231Z,55.70
2018-09-29T11:40:44.473Z,56.30
2018-09-29T11:43:12.908Z,57.30
2018-09-29T11:45:41.342Z,57.70
2018-09-29T11:48:09.593Z,58.30
2018-09-29T11:50:37.860Z,58.60
2018-09-29T11:53:06.159Z,58.90
2018-09-29T11:55:34.444Z,58.80
2018-09-29T11:58:02.702Z,59.10
2018-09-29T12:00:30.964Z,58.70
2018-09-29T12:02:59.242Z,59.50
2018-09-29T12:05:27.488Z,58.90
2018-09-29T12:07:55.756Z,59.80
2018-09-29T12:10:24.061Z,59.20
2018-09-29T12:12:52.308Z,59.10
2018-09-29T12:15:20.560Z,57.90
2018-09-29T12:17:48.821Z,57.90
2018-09-29T12:20:17.074Z,57.10
2018-09-29T12:22:45.333Z,57.00
2018-09-29T12:25:13.589Z,57.20
2018-09-29T12:27:41.860Z,56.30
2018-09-29T12:30:10.109Z,57.00
2018-09-29T12:32:38.382Z,57.50
2018-09-29T12:35:06.781Z,56.30
2018-09-29T12:37:35.093Z,55.60
2018-09-29T12:40:03.327Z,55.60
2018-09-29T12:42:31.613Z,55.30
2018-09-29T12:44:59.937Z,55.30
2018-09-29T12:47:28.260Z,54.60
2018-09-29T12:49:56.502Z,56.30
2018-09-29T12:52:24.761Z,55.50
2018-09-29T12:54:53.161Z,56.80
2018-09-29T12:57:21.570Z,57.60
2018-09-29T12:59:50.120Z,57.40
2018-09-29T13:02:18.397Z,57.40
2018-09-29T13:04:46.812Z,57.00
2018-09-29T13:07:15.073Z,58.00
2018-09-29T13:09:43.327Z,57.90
2018-09-29T13:12:11.617Z,58.50
2018-09-29T13:14:39.904Z,59.20
2018-09-29T13:17:08.309Z,58.40
2018-09-29T13:19:36.562Z,58.50
2018-09-29T13:22:04.819Z,58.50
2018-09-29T13:24:33.098Z,58.30
2018-09-29T13:27:01.362Z,59.60
2018-09-29T13:29:29.652Z,59.00
2018-09-29T13:31:57.977Z,58.70
2018-09-29T13:34:26.276Z,59.10
2018-09-29T13:36:54.556Z,59.10
2018-09-29T13:39:22.840Z,58.50
2018-09-29T13:41:51.096Z,58.30
2018-09-29T13:44:19.392Z,58.60
2018-09-29T13:46:47.629Z,58.70
2018-09-29T13:49:15.885Z,58.60
2018-09-29T13:51:44.148Z,59.10
2018-09-29T13:54:12.440Z,59.40
2018-09-29T13:56:40.717Z,60.00
2018-09-29T13:59:08.985Z,59.90
2018-09-29T14:01:37.252Z,60.30
2018-09-29T14:06:40.244Z,59.30
2018-09-29T14:09:09.674Z,58.30
2018-09-29T14:11:37.957Z,58.60
2018-09-29T14:14:06.837Z,58.60
2018-09-29T14:16:35.104Z,58.70
2018-09-29T14:19:03.352Z,56.90
2018-09-29T14:21:31.657Z,56.40
2018-09-29T14:23:59.940Z,56.90
2018-09-29T14:26:28.281Z,57.90
2018-09-29T14:28:56.548Z,57.90
2018-09-29T14:31:24.840Z,58.60
2018-09-29T14:33:53.101Z,59.30
2018-09-29T14:36:21.368Z,60.00
2018-09-29T14:38:49.620Z,60.70
2018-09-29T14:41:17.889Z,60.50
2018-09-29T14:43:46.161Z,60.30
2018-09-29T14:46:14.418Z,59.30
2018-09-29T14:48:42.672Z,59.20
2018-09-29T14:51:10.984Z,59.10
2018-09-29T14:53:39.236Z,57.90
2018-09-29T14:56:07.494Z,57.80
2018-09-29T14:58:35.776Z,57.90
2018-09-29T15:01:04.172Z,58.10
2018-09-29T15:03:32.440Z,58.70
2018-09-29T15:06:00.863Z,58.20
2018-09-29T15:08:29.134Z,59.30
2018-09-29T15:10:57.404Z,59.90
2018-09-29T15:13:25.801Z,59.70
2018-09-29T15:15:54.044Z,59.90
2018-09-29T15:18:22.328Z,59.30
2018-09-29T15:20:51.990Z,59.80
2018-09-29T15:23:20.525Z,60.70
2018-09-29T15:25:48.786Z,60.00
2018-09-29T15:28:17.033Z,60.30
2018-09-29T15:30:45.320Z,59.80
2018-09-29T15:33:13.604Z,60.30
2018-09-29T15:35:41.896Z,60.40
2018-09-29T15:38:10.192Z,60.20
2018-09-29T15:40:38.446Z,60.40
2018-09-29T15:43:06.721Z,61.50
2018-09-29T15:45:35.187Z,61.60
2018-09-29T15:48:03.438Z,61.60
2018-09-29T15:50:31.694Z,60.50
2018-09-29T15:52:59.974Z,60.60
2018-09-29T15:55:28.273Z,61.10
2018-09-29T15:57:56.519Z,62.50
2018-09-29T16:00:24.791Z,61.90
2018-09-29T16:02:53.072Z,62.70
2018-09-29T16:05:21.352Z,62.50
2018-09-29T16:07:49.665Z,61.90
2018-09-29T16:10:17.932Z,61.90
2018-09-29T16:12:46.195Z,62.30
2018-09-29T16:15:14.466Z,62.50
2018-09-29T16:17:42.725Z,62.70
2018-09-29T16:20:11.006Z,63.40
2018-09-29T16:22:39.293Z,62.90
2018-09-29T16:25:07.604Z,63.40
2018-09-29T16:27:35.855Z,63.70
2018-09-29T16:30:04.238Z,64.00
2018-09-29T16:32:32.621Z,64.40
2018-09-29T16:35:00.905Z,64.40
2018-09-29T16:37:29.190Z,65.00
2018-09-29T16:39:57.457Z,65.50
2018-09-29T16:42:25.772Z,64.90
2018-09-29T16:44:54.069Z,65.10
2018-09-29T16:47:22.320Z,65.30
2018-09-29T16:49:50.607Z,65.30
2018-09-29T16:52:18.856Z,65.60
2018-09-29T16:54:47.118Z,66.40
2018-09-29T16:57:15.400Z,67.20
2018-09-29T16:59:43.708Z,66.50
2018-09-29T17:02:11.989Z,67.20
2018-09-29T17:04:40.281Z,67.20
2018-09-29T17:07:08.540Z,67.30
2018-09-29T17:09:36.804Z,67.90
2018-09-29T17:12:05.909Z,68.40
2018-09-29T17:14:34.165Z,68.50
2018-09-29T17:17:02.444Z,69.50
2018-09-29T17:19:30.975Z,69.60
2018-09-29T17:21:59.330Z,69.90
2018-09-29T17:24:27.518Z,71.60
2018-09-29T17:26:55.809Z,71.00
2018-09-29T17:29:24.105Z,72.80
2018-09-29T17:31:52.437Z,73.20
2018-09-29T17:34:20.658Z,73.60
2018-09-29T17:36:49.756Z,73.30
2018-09-29T17:39:18.044Z,74.20
2018-09-29T17:41:46.307Z,74.30
2018-09-29T17:44:14.603Z,74.40
2018-09-29T17:46:42.852Z,74.40
2018-09-29T17:49:11.107Z,74.60
2018-09-29T17:51:39.373Z,75.50
2018-09-29T17:54:07.652Z,75.70
2018-09-29T17:56:35.900Z,75.60
2018-09-29T17:59:04.223Z,75.10
2018-09-29T18:01:32.488Z,75.80
2018-09-29T18:04:00.799Z,75.80
2018-09-29T18:06:29.056Z,77.70
2018-09-29T18:08:57.344Z,77.50
2018-09-29T18:11:25.625Z,78.20
2018-09-29T18:13:53.901Z,78.70
2018-09-29T18:16:22.190Z,78.90
2018-09-29T18:18:50.463Z,78.90
2018-09-29T18:21:18.756Z,79.00
2018-09-29T18:23:47.025Z,80.10
2018-09-29T18:26:15.310Z,80.40
2018-09-29T18:28:43.556Z,80.10
2018-09-29T18:31:11.833Z,80.00
2018-09-29T18:33:40.126Z,80.30
2018-09-29T18:36:08.409Z,80.60
2018-09-29T18:38:37.205Z,81.00
2018-09-29T18:41:05.459Z,81.90
2018-09-29T18:43:33.748Z,82.20
2018-09-29T18:46:02.132Z,82.40
2018-09-29T18:48:30.427Z,82.60
2018-09-29T18:50:58.696Z,83.10
2018-09-29T18:53:26.947Z,83.40
2018-09-29T18:55:55.194Z,83.90
2018-09-29T18:58:23.478Z,84.60
2018-09-29T19:00:51.757Z,85.20
2018-09-29T19:03:20.033Z,85.50
2018-09-29T19:05:48.320Z,85.80
2018-09-29T19:08:16.606Z,86.30
2018-09-29T19:10:44.883Z,86.80
2018-09-29T19:13:13.158Z,87.50
2018-09-29T19:15:41.436Z,88.10
2018-09-29T19:18:09.725Z,88.20
2018-09-29T19:20:37.984Z,88.70
2018-09-29T19:23:06.441Z,89.20
2018-09-29T19:25:34.737Z,89.60
2018-09-29T19:28:02.993Z,90.00
2018-09-29T19:30:31.278Z,89.90
2018-09-29T19:32:59.564Z,90.10
2018-09-29T19:35:28.049Z,90.00
2018-09-29T19:37:56.333Z,90.00
2018-09-29T19:40:24.772Z,90.10
2018-09-29T19:42:53.037Z,90.00
2018-09-29T19:45:21.310Z,89.80
2018-09-29T19:47:49.629Z,90.30
2018-09-29T19:50:17.883Z,90.00
2018-09-29T19:52:46.150Z,89.80
2018-09-29T19:55:14.444Z,90.00
2018-09-29T19:57:42.729Z,90.30
2018-09-29T20:00:11.021Z,89.70
2018-09-29T20:02:39.313Z,90.10
2018-09-29T20:05:07.597Z,90.10
2018-09-29T20:07:36.225Z,90.10
2018-09-29T20:10:04.659Z,90.20
2018-09-29T20:12:32.925Z,90.30
2018-09-29T20:15:01.212Z,90.30
2018-09-29T20:17:29.478Z,90.40
2018-09-29T20:19:57.786Z,90.70
2018-09-29T20:22:26.261Z,90.60
2018-09-29T20:24:54.548Z,90.60
2018-09-29T20:27:22.837Z,90.70
2018-09-29T20:29:51.122Z,90.80
2018-09-29T20:32:19.420Z,90.80
2018-09-29T20:34:47.712Z,90.90
2018-09-29T20:37:16.068Z,91.00
2018-09-29T20:39:44.315Z,91.10
2018-09-29T20:42:12.604Z,91.20
2018-09-29T20:44:40.856Z,91.20
2018-09-29T20:47:09.152Z,91.30
2018-09-29T20:49:37.498Z,91.60
2018-09-29T20:52:05.737Z,91.50
2018-09-29T20:54:34.042Z,91.40
2018-09-29T20:57:02.357Z,91.30
2018-09-29T20:59:30.649Z,91.20
2018-09-29T21:01:58.928Z,91.10
2018-09-29T21:04:27.192Z,91.10
2018-09-29T21:06:55.486Z,91.40
2018-09-29T21:09:30.560Z,91.50
2018-09-29T21:11:58.821Z,91.60
2018-09-29T21:14:27.115Z,91.70
2018-09-29T21:16:55.400Z,92.10
2018-09-29T21:19:23.682Z,91.90
2018-09-29T21:21:51.959Z,91.70
2018-09-29T21:24:20.204Z,91.90
2018-09-29T21:26:48.452Z,91.50
2018-09-29T21:29:16.724Z,91.70
2018-09-29T21:31:45.012Z,91.60
2018-09-29T21:34:13.298Z,91.20
2018-09-29T21:36:41.576Z,91.80
2018-09-29T21:39:16.459Z,91.70
2018-09-29T21:41:44.734Z,91.40
2018-09-29T21:44:12.996Z,91.40
2018-09-29T21:46:41.248Z,91.50
2018-09-29T21:49:09.553Z,91.60
2018-09-29T21:51:37.828Z,91.50
2018-09-29T21:54:06.119Z,91.20
2018-09-29T21:56:34.380Z,91.50
2018-09-29T21:59:02.629Z,91.60
2018-09-29T22:01:33.008Z,91.60
2018-09-29T22:04:02.201Z,91.60
2018-09-29T22:06:30.470Z,91.60
2018-09-29T22:08:59.264Z,91.50
2018-09-29T22:11:27.564Z,91.70
2018-09-29T22:13:55.935Z,91.90
2018-09-29T22:16:24.638Z,92.00
2018-09-29T22:18:53.878Z,92.00
2018-09-29T22:21:22.236Z,92.10
2018-09-29T22:23:50.513Z,92.20
2018-09-29T22:26:18.785Z,92.00
2018-09-29T22:28:47.060Z,92.20
2018-09-29T22:31:15.356Z,92.30
2018-09-29T22:33:43.632Z,92.20
2018-09-29T22:36:11.901Z,92.30
2018-09-29T22:38:40.195Z,92.50
2018-09-29T22:41:08.473Z,92.50
2018-09-29T22:43:36.731Z,92.40
2018-09-29T22:46:05.033Z,92.90
2018-09-29T22:48:33.288Z,92.70
2018-09-29T22:51:01.537Z,92.80
2018-09-29T22:53:29.798Z,92.90
2018-09-29T22:55:58.120Z,93.00
2018-09-29T22:58:26.348Z,93.10
2018-09-29T23:00:54.701Z,93.20
2018-09-29T23:03:23.001Z,93.20
2018-09-29T23:05:51.279Z,93.10
2018-09-29T23:08:19.547Z,93.10
2018-09-29T23:10:47.856Z,93.40
2018-09-29T23:13:16.118Z,93.00
2018-09-29T23:15:44.401Z,93.20
2018-09-29T23:18:12.680Z,93.20
2018-09-29T23:20:40.973Z,93.20
2018-09-29T23:23:09.236Z,93.30
2018-09-29T23:25:37.543Z,93.30
2018-09-29T23:28:05.858Z,93.50
2018-09-29T23:30:34.138Z,93.40
2018-09-29T23:33:02.425Z,93.20
2018-09-29T23:35:30.693Z,93.20
2018-09-29T23:37:58.996Z,93.30
2018-09-29T23:40:27.258Z,93.30
2018-09-29T23:42:55.564Z,93.30
2018-09-29T23:45:23.820Z,93.30
2018-09-29T23:47:52.108Z,93.20
2018-09-29T23:50:20.380Z,93.40
2018-09-29T23:52:48.671Z,93.30
2018-09-29T23:55:16.940Z,93.20
2018-09-29T23:57:45.206Z,93.20
